<?xml version='1.0' encoding='UTF-8'?><gpx version="1.1" creator="JPX - https://github.com/jenetics/jpx" xmlns="http://www.topografix.com/GPX/1/1"><trk><trkseg><trkpt lat="43.3364567" lon="11.7258533"><ele>270.8333333333333</ele><time>2026-04-12T13:02:52.774Z</time></trkpt><trkpt lat="43.3363683" lon="11.72582"><ele>270.66666666666663</ele><time>2026-04-12T13:03:27.774Z</time></trkpt><trkpt lat="43.3363017" lon="11.7258333"><ele>270.5</ele><time>2026-04-12T13:03:29.774Z</time></trkpt><trkpt lat="43.336225" lon="11.725865"><ele>270.3333333333333</ele><time>2026-04-12T13:03:32.774Z</time></trkpt><trkpt lat="43.33616" lon="11.7258767"><ele>270.1666666666667</ele><time>2026-04-12T13:03:34.773Z</time></trkpt><trkpt lat="43.3360767" lon="11.7259033"><ele>270.0</ele><time>2026-04-12T13:03:40.774Z</time></trkpt><trkpt lat="43.3359683" lon="11.7258733"><ele>270.0</ele><time>2026-04-12T13:03:42.774Z</time></trkpt><trkpt lat="43.3359083" lon="11.7258133"><ele>270.0</ele><time>2026-04-12T13:03:43.774Z</time></trkpt><trkpt lat="43.3358633" lon="11.725725"><ele>270.0</ele><time>2026-04-12T13:03:44.774Z</time></trkpt><trkpt lat="43.3358033" lon="11.7256317"><ele>270.0</ele><time>2026-04-12T13:03:45.774Z</time></trkpt><trkpt lat="43.3357383" lon="11.725565"><ele>270.0</ele><time>2026-04-12T13:03:46.774Z</time></trkpt><trkpt lat="43.3356483" lon="11.725515"><ele>270.0</ele><time>2026-04-12T13:03:47.774Z</time></trkpt><trkpt lat="43.3355367" lon="11.7254683"><ele>271.25</ele><time>2026-04-12T13:03:48.774Z</time></trkpt><trkpt lat="43.3354117" lon="11.72543"><ele>272.5</ele><time>2026-04-12T13:03:49.774Z</time></trkpt><trkpt lat="43.335295" lon="11.72539"><ele>273.75</ele><time>2026-04-12T13:03:50.774Z</time></trkpt><trkpt lat="43.3351883" lon="11.7253783"><ele>275.0</ele><time>2026-04-12T13:03:51.774Z</time></trkpt><trkpt lat="43.3350933" lon="11.72538"><ele>275.0</ele><time>2026-04-12T13:03:52.774Z</time></trkpt><trkpt lat="43.3350133" lon="11.7253867"><ele>275.0</ele><time>2026-04-12T13:03:53.774Z</time></trkpt><trkpt lat="43.334905" lon="11.7253467"><ele>275.0</ele><time>2026-04-12T13:03:55.774Z</time></trkpt><trkpt lat="43.3348567" lon="11.7252817"><ele>275.0</ele><time>2026-04-12T13:03:56.774Z</time></trkpt><trkpt lat="43.3348033" lon="11.72519"><ele>275.0</ele><time>2026-04-12T13:03:57.774Z</time></trkpt><trkpt lat="43.3347317" lon="11.7250567"><ele>279.25</ele><time>2026-04-12T13:03:58.774Z</time></trkpt><trkpt lat="43.3346533" lon="11.7249133"><ele>283.5</ele><time>2026-04-12T13:03:59.774Z</time></trkpt><trkpt lat="43.3345717" lon="11.7247633"><ele>287.75</ele><time>2026-04-12T13:04:00.774Z</time></trkpt><trkpt lat="43.334485" lon="11.7246083"><ele>292.0</ele><time>2026-04-12T13:04:01.774Z</time></trkpt><trkpt lat="43.3343883" lon="11.7244583"><ele>292.75</ele><time>2026-04-12T13:04:02.774Z</time></trkpt><trkpt lat="43.3342933" lon="11.7243217"><ele>293.5</ele><time>2026-04-12T13:04:03.774Z</time></trkpt><trkpt lat="43.3341867" lon="11.7242"><ele>294.25</ele><time>2026-04-12T13:04:04.774Z</time></trkpt><trkpt lat="43.3340867" lon="11.7240733"><ele>295.0</ele><time>2026-04-12T13:04:05.774Z</time></trkpt><trkpt lat="43.3339883" lon="11.7239717"><ele>299.25</ele><time>2026-04-12T13:04:06.774Z</time></trkpt><trkpt lat="43.3338883" lon="11.7238767"><ele>303.5</ele><time>2026-04-12T13:04:07.774Z</time></trkpt><trkpt lat="43.3337733" lon="11.7238017"><ele>307.75</ele><time>2026-04-12T13:04:08.774Z</time></trkpt><trkpt lat="43.333645" lon="11.7237617"><ele>312.0</ele><time>2026-04-12T13:04:09.774Z</time></trkpt><trkpt lat="43.3335083" lon="11.72375"><ele>312.0</ele><time>2026-04-12T13:04:10.774Z</time></trkpt><trkpt lat="43.3333683" lon="11.7237667"><ele>312.0</ele><time>2026-04-12T13:04:11.774Z</time></trkpt><trkpt lat="43.3332317" lon="11.7237783"><ele>312.0</ele><time>2026-04-12T13:04:12.774Z</time></trkpt><trkpt lat="43.3331133" lon="11.7237733"><ele>312.0</ele><time>2026-04-12T13:04:13.774Z</time></trkpt><trkpt lat="43.3330167" lon="11.72376"><ele>313.6</ele><time>2026-04-12T13:04:14.774Z</time></trkpt><trkpt lat="43.3329383" lon="11.7237183"><ele>315.2</ele><time>2026-04-12T13:04:15.774Z</time></trkpt><trkpt lat="43.332865" lon="11.723655"><ele>316.8</ele><time>2026-04-12T13:04:16.774Z</time></trkpt><trkpt lat="43.3327967" lon="11.723565"><ele>318.4</ele><time>2026-04-12T13:04:17.774Z</time></trkpt><trkpt lat="43.332735" lon="11.723465"><ele>320.0</ele><time>2026-04-12T13:04:18.774Z</time></trkpt><trkpt lat="43.3326817" lon="11.7233633"><ele>320.0</ele><time>2026-04-12T13:04:19.774Z</time></trkpt><trkpt lat="43.33263" lon="11.7232683"><ele>320.0</ele><time>2026-04-12T13:04:20.774Z</time></trkpt><trkpt lat="43.3325833" lon="11.7231733"><ele>320.0</ele><time>2026-04-12T13:04:21.774Z</time></trkpt><trkpt lat="43.3325317" lon="11.7230967"><ele>320.0</ele><time>2026-04-12T13:04:22.774Z</time></trkpt><trkpt lat="43.3324733" lon="11.72302"><ele>320.0</ele><time>2026-04-12T13:04:23.774Z</time></trkpt><trkpt lat="43.3324183" lon="11.7229617"><ele>320.0</ele><time>2026-04-12T13:04:24.774Z</time></trkpt><trkpt lat="43.33235" lon="11.722895"><ele>320.0</ele><time>2026-04-12T13:04:26.774Z</time></trkpt><trkpt lat="43.3323433" lon="11.7227883"><ele>320.0</ele><time>2026-04-12T13:04:28.774Z</time></trkpt><trkpt lat="43.332365" lon="11.7226933"><ele>320.0</ele><time>2026-04-12T13:04:29.774Z</time></trkpt><trkpt lat="43.3324" lon="11.7225883"><ele>320.0</ele><time>2026-04-12T13:04:30.774Z</time></trkpt><trkpt lat="43.332465" lon="11.7224467"><ele>320.0</ele><time>2026-04-12T13:04:31.774Z</time></trkpt><trkpt lat="43.3325483" lon="11.7223017"><ele>320.25</ele><time>2026-04-12T13:04:32.774Z</time></trkpt><trkpt lat="43.3326333" lon="11.72215"><ele>320.5</ele><time>2026-04-12T13:04:33.774Z</time></trkpt><trkpt lat="43.3327167" lon="11.7219967"><ele>320.75</ele><time>2026-04-12T13:04:34.774Z</time></trkpt><trkpt lat="43.3327633" lon="11.7218383"><ele>321.0</ele><time>2026-04-12T13:04:35.774Z</time></trkpt><trkpt lat="43.3327967" lon="11.7216483"><ele>321.0</ele><time>2026-04-12T13:04:36.774Z</time></trkpt><trkpt lat="43.33281" lon="11.7214367"><ele>321.0</ele><time>2026-04-12T13:04:37.774Z</time></trkpt><trkpt lat="43.3328283" lon="11.7212367"><ele>321.0</ele><time>2026-04-12T13:04:38.774Z</time></trkpt><trkpt lat="43.3328217" lon="11.7210383"><ele>321.0</ele><time>2026-04-12T13:04:39.774Z</time></trkpt><trkpt lat="43.332825" lon="11.72087"><ele>322.0</ele><time>2026-04-12T13:04:40.774Z</time></trkpt><trkpt lat="43.3328283" lon="11.7206917"><ele>323.0</ele><time>2026-04-12T13:04:41.774Z</time></trkpt><trkpt lat="43.3328317" lon="11.7205233"><ele>324.0</ele><time>2026-04-12T13:04:42.774Z</time></trkpt><trkpt lat="43.3328317" lon="11.7203633"><ele>325.0</ele><time>2026-04-12T13:04:43.774Z</time></trkpt><trkpt lat="43.3328317" lon="11.7201983"><ele>326.25</ele><time>2026-04-12T13:04:44.774Z</time></trkpt><trkpt lat="43.3328283" lon="11.7200417"><ele>327.5</ele><time>2026-04-12T13:04:45.774Z</time></trkpt><trkpt lat="43.3328283" lon="11.7198817"><ele>328.75</ele><time>2026-04-12T13:04:46.774Z</time></trkpt><trkpt lat="43.3328217" lon="11.719725"><ele>330.0</ele><time>2026-04-12T13:04:47.774Z</time></trkpt><trkpt lat="43.332805" lon="11.7195667"><ele>330.8</ele><time>2026-04-12T13:04:48.774Z</time></trkpt><trkpt lat="43.3327783" lon="11.7194"><ele>331.6</ele><time>2026-04-12T13:04:49.774Z</time></trkpt><trkpt lat="43.332755" lon="11.71924"><ele>332.4</ele><time>2026-04-12T13:04:50.774Z</time></trkpt><trkpt lat="43.3327217" lon="11.7191183"><ele>333.2</ele><time>2026-04-12T13:04:51.774Z</time></trkpt><trkpt lat="43.332695" lon="11.719025"><ele>334.0</ele><time>2026-04-12T13:04:52.774Z</time></trkpt><trkpt lat="43.3326667" lon="11.71893"><ele>334.0</ele><time>2026-04-12T13:04:53.774Z</time></trkpt><trkpt lat="43.3326383" lon="11.71884"><ele>334.0</ele><time>2026-04-12T13:04:54.774Z</time></trkpt><trkpt lat="43.3325633" lon="11.7187233"><ele>334.0</ele><time>2026-04-12T13:04:56.774Z</time></trkpt><trkpt lat="43.3325" lon="11.718635"><ele>334.0</ele><time>2026-04-12T13:04:58.774Z</time></trkpt><trkpt lat="43.332425" lon="11.7185433"><ele>334.0</ele><time>2026-04-12T13:05:00.774Z</time></trkpt><trkpt lat="43.3323617" lon="11.7184883"><ele>334.79999999999995</ele><time>2026-04-12T13:05:01.774Z</time></trkpt><trkpt lat="43.3322917" lon="11.7184133"><ele>335.59999999999997</ele><time>2026-04-12T13:05:02.774Z</time></trkpt><trkpt lat="43.33222" lon="11.7183167"><ele>336.4</ele><time>2026-04-12T13:05:03.774Z</time></trkpt><trkpt lat="43.33214" lon="11.7182317"><ele>337.2</ele><time>2026-04-12T13:05:04.774Z</time></trkpt><trkpt lat="43.332065" lon="11.7181383"><ele>338.0</ele><time>2026-04-12T13:05:05.774Z</time></trkpt><trkpt lat="43.3319917" lon="11.7180417"><ele>338.0</ele><time>2026-04-12T13:05:06.774Z</time></trkpt><trkpt lat="43.3319133" lon="11.7179567"><ele>338.0</ele><time>2026-04-12T13:05:07.774Z</time></trkpt><trkpt lat="43.3318367" lon="11.71788"><ele>338.0</ele><time>2026-04-12T13:05:08.774Z</time></trkpt><trkpt lat="43.3317517" lon="11.7177917"><ele>338.0</ele><time>2026-04-12T13:05:09.774Z</time></trkpt><trkpt lat="43.3316633" lon="11.71769"><ele>338.0</ele><time>2026-04-12T13:05:10.774Z</time></trkpt><trkpt lat="43.3315717" lon="11.7175967"><ele>338.0</ele><time>2026-04-12T13:05:11.773Z</time></trkpt><trkpt lat="43.331485" lon="11.717495"><ele>338.0</ele><time>2026-04-12T13:05:12.773Z</time></trkpt><trkpt lat="43.3313917" lon="11.717375"><ele>338.0</ele><time>2026-04-12T13:05:13.773Z</time></trkpt><trkpt lat="43.33129" lon="11.7172467"><ele>338.0</ele><time>2026-04-12T13:05:14.773Z</time></trkpt><trkpt lat="43.3311883" lon="11.7171117"><ele>338.0</ele><time>2026-04-12T13:05:15.773Z</time></trkpt><trkpt lat="43.331085" lon="11.71696"><ele>338.0</ele><time>2026-04-12T13:05:16.772Z</time></trkpt><trkpt lat="43.3309867" lon="11.7168017"><ele>338.0</ele><time>2026-04-12T13:05:17.773Z</time></trkpt><trkpt lat="43.330895" lon="11.7166333"><ele>337.6666666666667</ele><time>2026-04-12T13:05:18.773Z</time></trkpt><trkpt lat="43.3308133" lon="11.7164333"><ele>337.3333333333333</ele><time>2026-04-12T13:05:19.773Z</time></trkpt><trkpt lat="43.3307317" lon="11.716235"><ele>337.0</ele><time>2026-04-12T13:05:20.773Z</time></trkpt><trkpt lat="43.3306517" lon="11.7160217"><ele>338.0</ele><time>2026-04-12T13:05:21.773Z</time></trkpt><trkpt lat="43.3305767" lon="11.7158417"><ele>339.0</ele><time>2026-04-12T13:05:22.773Z</time></trkpt><trkpt lat="43.3304883" lon="11.71568"><ele>340.0</ele><time>2026-04-12T13:05:23.773Z</time></trkpt><trkpt lat="43.3303933" lon="11.715555"><ele>341.0</ele><time>2026-04-12T13:05:24.773Z</time></trkpt><trkpt lat="43.3302817" lon="11.7154383"><ele>341.0</ele><time>2026-04-12T13:05:25.773Z</time></trkpt><trkpt lat="43.330155" lon="11.715335"><ele>341.0</ele><time>2026-04-12T13:05:26.773Z</time></trkpt><trkpt lat="43.3300117" lon="11.7152633"><ele>341.0</ele><time>2026-04-12T13:05:27.773Z</time></trkpt><trkpt lat="43.32987" lon="11.7152083"><ele>341.0</ele><time>2026-04-12T13:05:28.773Z</time></trkpt><trkpt lat="43.3297367" lon="11.71515"><ele>342.0</ele><time>2026-04-12T13:05:29.773Z</time></trkpt><trkpt lat="43.3295983" lon="11.7150617"><ele>343.0</ele><time>2026-04-12T13:05:30.772Z</time></trkpt><trkpt lat="43.329465" lon="11.7149567"><ele>344.0</ele><time>2026-04-12T13:05:31.773Z</time></trkpt><trkpt lat="43.3293483" lon="11.7148367"><ele>344.0</ele><time>2026-04-12T13:05:32.773Z</time></trkpt><trkpt lat="43.3292767" lon="11.7147367"><ele>344.0</ele><time>2026-04-12T13:05:33.773Z</time></trkpt><trkpt lat="43.3292583" lon="11.7146183"><ele>344.0</ele><time>2026-04-12T13:05:34.773Z</time></trkpt><trkpt lat="43.3293017" lon="11.7144767"><ele>344.0</ele><time>2026-04-12T13:05:35.773Z</time></trkpt><trkpt lat="43.3293683" lon="11.7142967"><ele>344.0</ele><time>2026-04-12T13:05:36.773Z</time></trkpt><trkpt lat="43.3294367" lon="11.7140967"><ele>345.33333333333337</ele><time>2026-04-12T13:05:37.773Z</time></trkpt><trkpt lat="43.329495" lon="11.713885"><ele>346.6666666666667</ele><time>2026-04-12T13:05:38.773Z</time></trkpt><trkpt lat="43.3295417" lon="11.7136733"><ele>348.0</ele><time>2026-04-12T13:05:39.773Z</time></trkpt><trkpt lat="43.3295733" lon="11.71346"><ele>349.6666666666667</ele><time>2026-04-12T13:05:40.773Z</time></trkpt><trkpt lat="43.329585" lon="11.7132533"><ele>351.33333333333337</ele><time>2026-04-12T13:05:41.773Z</time></trkpt><trkpt lat="43.3295217" lon="11.7130683"><ele>353.0</ele><time>2026-04-12T13:05:42.773Z</time></trkpt><trkpt lat="43.3294167" lon="11.71291"><ele>353.0</ele><time>2026-04-12T13:05:43.772Z</time></trkpt><trkpt lat="43.3292833" lon="11.7127633"><ele>353.0</ele><time>2026-04-12T13:05:44.773Z</time></trkpt><trkpt lat="43.3291383" lon="11.7126317"><ele>353.0</ele><time>2026-04-12T13:05:45.773Z</time></trkpt><trkpt lat="43.3289933" lon="11.7124983"><ele>354.6666666666667</ele><time>2026-04-12T13:05:46.772Z</time></trkpt><trkpt lat="43.328845" lon="11.7123683"><ele>356.3333333333333</ele><time>2026-04-12T13:05:47.773Z</time></trkpt><trkpt lat="43.3286983" lon="11.7122567"><ele>358.0</ele><time>2026-04-12T13:05:48.773Z</time></trkpt><trkpt lat="43.3285383" lon="11.7121667"><ele>358.0</ele><time>2026-04-12T13:05:49.773Z</time></trkpt><trkpt lat="43.3283683" lon="11.7121033"><ele>358.0</ele><time>2026-04-12T13:05:50.773Z</time></trkpt><trkpt lat="43.3281833" lon="11.7120683"><ele>358.0</ele><time>2026-04-12T13:05:51.772Z</time></trkpt><trkpt lat="43.3280133" lon="11.7120417"><ele>359.3333333333333</ele><time>2026-04-12T13:05:52.773Z</time></trkpt><trkpt lat="43.3278583" lon="11.71199"><ele>360.6666666666667</ele><time>2026-04-12T13:05:53.773Z</time></trkpt><trkpt lat="43.327725" lon="11.71191"><ele>362.0</ele><time>2026-04-12T13:05:54.773Z</time></trkpt><trkpt lat="43.3276" lon="11.711785"><ele>365.0</ele><time>2026-04-12T13:05:55.773Z</time></trkpt><trkpt lat="43.3275017" lon="11.7116367"><ele>368.0</ele><time>2026-04-12T13:05:56.773Z</time></trkpt><trkpt lat="43.327395" lon="11.71148"><ele>371.0</ele><time>2026-04-12T13:05:57.773Z</time></trkpt><trkpt lat="43.3272683" lon="11.7113533"><ele>373.6666666666667</ele><time>2026-04-12T13:05:58.773Z</time></trkpt><trkpt lat="43.3271317" lon="11.711295"><ele>376.3333333333333</ele><time>2026-04-12T13:05:59.773Z</time></trkpt><trkpt lat="43.3269867" lon="11.7113317"><ele>379.0</ele><time>2026-04-12T13:06:00.773Z</time></trkpt><trkpt lat="43.3268383" lon="11.7114183"><ele>379.0</ele><time>2026-04-12T13:06:01.773Z</time></trkpt><trkpt lat="43.3266983" lon="11.7115133"><ele>379.0</ele><time>2026-04-12T13:06:02.773Z</time></trkpt><trkpt lat="43.32656" lon="11.71161"><ele>379.0</ele><time>2026-04-12T13:06:03.773Z</time></trkpt><trkpt lat="43.326425" lon="11.7117117"><ele>380.5</ele><time>2026-04-12T13:06:04.773Z</time></trkpt><trkpt lat="43.3262933" lon="11.7117967"><ele>382.0</ele><time>2026-04-12T13:06:05.773Z</time></trkpt><trkpt lat="43.3261617" lon="11.7118583"><ele>383.5</ele><time>2026-04-12T13:06:06.773Z</time></trkpt><trkpt lat="43.3260417" lon="11.7118867"><ele>385.0</ele><time>2026-04-12T13:06:07.773Z</time></trkpt><trkpt lat="43.32594" lon="11.7118467"><ele>385.0</ele><time>2026-04-12T13:06:08.773Z</time></trkpt><trkpt lat="43.3259033" lon="11.71175"><ele>385.0</ele><time>2026-04-12T13:06:09.773Z</time></trkpt><trkpt lat="43.3258983" lon="11.7116567"><ele>385.0</ele><time>2026-04-12T13:06:10.773Z</time></trkpt><trkpt lat="43.3259283" lon="11.7115417"><ele>385.0</ele><time>2026-04-12T13:06:11.773Z</time></trkpt><trkpt lat="43.325995" lon="11.7114067"><ele>385.0</ele><time>2026-04-12T13:06:12.773Z</time></trkpt><trkpt lat="43.3260933" lon="11.71125"><ele>385.0</ele><time>2026-04-12T13:06:13.773Z</time></trkpt><trkpt lat="43.3262433" lon="11.7110817"><ele>385.0</ele><time>2026-04-12T13:06:14.773Z</time></trkpt><trkpt lat="43.3264083" lon="11.7109317"><ele>385.0</ele><time>2026-04-12T13:06:15.773Z</time></trkpt><trkpt lat="43.3265533" lon="11.7107867"><ele>386.33333333333337</ele><time>2026-04-12T13:06:16.773Z</time></trkpt><trkpt lat="43.3266933" lon="11.7106283"><ele>387.66666666666663</ele><time>2026-04-12T13:06:17.773Z</time></trkpt><trkpt lat="43.326815" lon="11.710455"><ele>389.0</ele><time>2026-04-12T13:06:18.773Z</time></trkpt><trkpt lat="43.3269067" lon="11.710285"><ele>389.75</ele><time>2026-04-12T13:06:19.773Z</time></trkpt><trkpt lat="43.326965" lon="11.7101083"><ele>390.5</ele><time>2026-04-12T13:06:20.773Z</time></trkpt><trkpt lat="43.327" lon="11.7099317"><ele>391.25</ele><time>2026-04-12T13:06:21.773Z</time></trkpt><trkpt lat="43.326995" lon="11.709745"><ele>392.0</ele><time>2026-04-12T13:06:22.773Z</time></trkpt><trkpt lat="43.3269783" lon="11.7095533"><ele>391.25</ele><time>2026-04-12T13:06:23.773Z</time></trkpt><trkpt lat="43.32696" lon="11.7093617"><ele>390.5</ele><time>2026-04-12T13:06:24.773Z</time></trkpt><trkpt lat="43.3269467" lon="11.7091583"><ele>389.75</ele><time>2026-04-12T13:06:25.773Z</time></trkpt><trkpt lat="43.3269333" lon="11.7089517"><ele>389.0</ele><time>2026-04-12T13:06:26.773Z</time></trkpt><trkpt lat="43.326935" lon="11.708745"><ele>389.25</ele><time>2026-04-12T13:06:27.773Z</time></trkpt><trkpt lat="43.32693" lon="11.7085467"><ele>389.5</ele><time>2026-04-12T13:06:28.773Z</time></trkpt><trkpt lat="43.3269183" lon="11.7083983"><ele>389.75</ele><time>2026-04-12T13:06:29.773Z</time></trkpt><trkpt lat="43.32689" lon="11.7082583"><ele>390.0</ele><time>2026-04-12T13:06:30.773Z</time></trkpt><trkpt lat="43.326865" lon="11.708115"><ele>390.0</ele><time>2026-04-12T13:06:31.772Z</time></trkpt><trkpt lat="43.3268233" lon="11.7079717"><ele>390.0</ele><time>2026-04-12T13:06:32.773Z</time></trkpt><trkpt lat="43.326755" lon="11.7078267"><ele>390.0</ele><time>2026-04-12T13:06:33.773Z</time></trkpt><trkpt lat="43.3266717" lon="11.7077033"><ele>390.0</ele><time>2026-04-12T13:06:34.773Z</time></trkpt><trkpt lat="43.32657" lon="11.7075917"><ele>391.0</ele><time>2026-04-12T13:06:35.773Z</time></trkpt><trkpt lat="43.32647" lon="11.7074783"><ele>392.0</ele><time>2026-04-12T13:06:36.773Z</time></trkpt><trkpt lat="43.3263717" lon="11.7073767"><ele>393.0</ele><time>2026-04-12T13:06:37.773Z</time></trkpt><trkpt lat="43.3262567" lon="11.707295"><ele>394.0</ele><time>2026-04-12T13:06:38.773Z</time></trkpt><trkpt lat="43.3261267" lon="11.70723"><ele>394.0</ele><time>2026-04-12T13:06:39.773Z</time></trkpt><trkpt lat="43.3260017" lon="11.7071767"><ele>394.0</ele><time>2026-04-12T13:06:40.773Z</time></trkpt><trkpt lat="43.3258767" lon="11.7071317"><ele>394.0</ele><time>2026-04-12T13:06:41.773Z</time></trkpt><trkpt lat="43.3255533" lon="11.706875"><ele>395.0</ele><time>2026-04-12T13:06:44.773Z</time></trkpt><trkpt lat="43.3254433" lon="11.7067433"><ele>396.0</ele><time>2026-04-12T13:06:45.773Z</time></trkpt><trkpt lat="43.32535" lon="11.7065933"><ele>397.0</ele><time>2026-04-12T13:06:46.773Z</time></trkpt><trkpt lat="43.325285" lon="11.706425"><ele>398.0</ele><time>2026-04-12T13:06:47.773Z</time></trkpt><trkpt lat="43.3252517" lon="11.7062467"><ele>399.0</ele><time>2026-04-12T13:06:48.773Z</time></trkpt><trkpt lat="43.3252517" lon="11.706045"><ele>400.0</ele><time>2026-04-12T13:06:49.773Z</time></trkpt><trkpt lat="43.3252817" lon="11.7058317"><ele>401.0</ele><time>2026-04-12T13:06:50.773Z</time></trkpt><trkpt lat="43.3253533" lon="11.7056267"><ele>401.0</ele><time>2026-04-12T13:06:51.773Z</time></trkpt><trkpt lat="43.3254467" lon="11.7054433"><ele>401.0</ele><time>2026-04-12T13:06:52.773Z</time></trkpt><trkpt lat="43.325575" lon="11.7052967"><ele>401.0</ele><time>2026-04-12T13:06:53.773Z</time></trkpt><trkpt lat="43.325715" lon="11.7051917"><ele>405.0</ele><time>2026-04-12T13:06:54.773Z</time></trkpt><trkpt lat="43.3258767" lon="11.7051267"><ele>409.0</ele><time>2026-04-12T13:06:55.773Z</time></trkpt><trkpt lat="43.32604" lon="11.7050383"><ele>413.0</ele><time>2026-04-12T13:06:56.773Z</time></trkpt><trkpt lat="43.3261767" lon="11.70491"><ele>413.0</ele><time>2026-04-12T13:06:57.773Z</time></trkpt><trkpt lat="43.3262717" lon="11.70472"><ele>413.0</ele><time>2026-04-12T13:06:58.773Z</time></trkpt><trkpt lat="43.32632" lon="11.7045033"><ele>413.0</ele><time>2026-04-12T13:06:59.772Z</time></trkpt><trkpt lat="43.3263383" lon="11.7042833"><ele>412.0</ele><time>2026-04-12T13:07:00.773Z</time></trkpt><trkpt lat="43.326365" lon="11.704085"><ele>411.0</ele><time>2026-04-12T13:07:01.773Z</time></trkpt><trkpt lat="43.326425" lon="11.7039283"><ele>410.0</ele><time>2026-04-12T13:07:02.773Z</time></trkpt><trkpt lat="43.3265233" lon="11.7038017"><ele>409.0</ele><time>2026-04-12T13:07:03.773Z</time></trkpt><trkpt lat="43.3266467" lon="11.7036817"><ele>412.33333333333337</ele><time>2026-04-12T13:07:04.773Z</time></trkpt><trkpt lat="43.32678" lon="11.7035467"><ele>415.66666666666663</ele><time>2026-04-12T13:07:05.773Z</time></trkpt><trkpt lat="43.3268883" lon="11.70338"><ele>419.0</ele><time>2026-04-12T13:07:06.773Z</time></trkpt><trkpt lat="43.3269483" lon="11.7031983"><ele>419.0</ele><time>2026-04-12T13:07:07.773Z</time></trkpt><trkpt lat="43.32697" lon="11.7030017"><ele>419.0</ele><time>2026-04-12T13:07:08.773Z</time></trkpt><trkpt lat="43.326965" lon="11.7027967"><ele>419.0</ele><time>2026-04-12T13:07:09.773Z</time></trkpt><trkpt lat="43.3269083" lon="11.7026383"><ele>419.0</ele><time>2026-04-12T13:07:10.773Z</time></trkpt><trkpt lat="43.3268133" lon="11.702505"><ele>421.0</ele><time>2026-04-12T13:07:11.773Z</time></trkpt><trkpt lat="43.3267017" lon="11.702365"><ele>423.0</ele><time>2026-04-12T13:07:12.772Z</time></trkpt><trkpt lat="43.3265783" lon="11.7022317"><ele>425.0</ele><time>2026-04-12T13:07:13.773Z</time></trkpt><trkpt lat="43.32646" lon="11.7021083"><ele>425.49999999999994</ele><time>2026-04-12T13:07:14.773Z</time></trkpt><trkpt lat="43.3263767" lon="11.7019883"><ele>426.0</ele><time>2026-04-12T13:07:15.773Z</time></trkpt><trkpt lat="43.3263533" lon="11.7018817"><ele>426.5</ele><time>2026-04-12T13:07:16.772Z</time></trkpt><trkpt lat="43.3263717" lon="11.7017983"><ele>427.0</ele><time>2026-04-12T13:07:17.773Z</time></trkpt><trkpt lat="43.3264317" lon="11.701755"><ele>427.49999999999994</ele><time>2026-04-12T13:07:18.773Z</time></trkpt><trkpt lat="43.3265133" lon="11.70173"><ele>428.0</ele><time>2026-04-12T13:07:19.773Z</time></trkpt><trkpt lat="43.3266367" lon="11.70174"><ele>428.0</ele><time>2026-04-12T13:07:20.773Z</time></trkpt><trkpt lat="43.32678" lon="11.7017517"><ele>428.0</ele><time>2026-04-12T13:07:21.773Z</time></trkpt><trkpt lat="43.3269983" lon="11.7017383"><ele>428.0</ele><time>2026-04-12T13:07:22.773Z</time></trkpt><trkpt lat="43.327265" lon="11.7016833"><ele>429.66666666666663</ele><time>2026-04-12T13:07:23.773Z</time></trkpt><trkpt lat="43.3274917" lon="11.7015983"><ele>431.33333333333337</ele><time>2026-04-12T13:07:24.773Z</time></trkpt><trkpt lat="43.327675" lon="11.7015183"><ele>433.0</ele><time>2026-04-12T13:07:25.773Z</time></trkpt><trkpt lat="43.327845" lon="11.7014367"><ele>433.0</ele><time>2026-04-12T13:07:26.773Z</time></trkpt><trkpt lat="43.328" lon="11.7013217"><ele>433.0</ele><time>2026-04-12T13:07:27.773Z</time></trkpt><trkpt lat="43.328125" lon="11.7011517"><ele>433.0</ele><time>2026-04-12T13:07:28.773Z</time></trkpt><trkpt lat="43.32823" lon="11.7009417"><ele>434.25</ele><time>2026-04-12T13:07:29.773Z</time></trkpt><trkpt lat="43.328325" lon="11.7007633"><ele>435.5</ele><time>2026-04-12T13:07:30.772Z</time></trkpt><trkpt lat="43.3284283" lon="11.70063"><ele>436.75</ele><time>2026-04-12T13:07:31.773Z</time></trkpt><trkpt lat="43.3285433" lon="11.7005217"><ele>438.0</ele><time>2026-04-12T13:07:32.773Z</time></trkpt><trkpt lat="43.328665" lon="11.7004133"><ele>438.0</ele><time>2026-04-12T13:07:33.773Z</time></trkpt><trkpt lat="43.3287917" lon="11.7002967"><ele>438.0</ele><time>2026-04-12T13:07:34.773Z</time></trkpt><trkpt lat="43.3289083" lon="11.7001733"><ele>438.0</ele><time>2026-04-12T13:07:35.773Z</time></trkpt><trkpt lat="43.3290233" lon="11.70004"><ele>439.66666666666663</ele><time>2026-04-12T13:07:36.773Z</time></trkpt><trkpt lat="43.329145" lon="11.6999167"><ele>441.3333333333333</ele><time>2026-04-12T13:07:37.773Z</time></trkpt><trkpt lat="43.3292667" lon="11.699785"><ele>443.0</ele><time>2026-04-12T13:07:38.773Z</time></trkpt><trkpt lat="43.329395" lon="11.6996467"><ele>443.0</ele><time>2026-04-12T13:07:39.773Z</time></trkpt><trkpt lat="43.3295183" lon="11.6994917"><ele>443.0</ele><time>2026-04-12T13:07:40.773Z</time></trkpt><trkpt lat="43.3296283" lon="11.6993433"><ele>443.0</ele><time>2026-04-12T13:07:41.773Z</time></trkpt><trkpt lat="43.3297117" lon="11.699175"><ele>447.3333333333333</ele><time>2026-04-12T13:07:42.773Z</time></trkpt><trkpt lat="43.3297433" lon="11.6989867"><ele>451.66666666666663</ele><time>2026-04-12T13:07:43.773Z</time></trkpt><trkpt lat="43.3297583" lon="11.69877"><ele>456.0</ele><time>2026-04-12T13:07:44.773Z</time></trkpt><trkpt lat="43.32977" lon="11.6985433"><ele>457.33333333333337</ele><time>2026-04-12T13:07:45.773Z</time></trkpt><trkpt lat="43.329795" lon="11.6982983"><ele>458.6666666666667</ele><time>2026-04-12T13:07:46.773Z</time></trkpt><trkpt lat="43.3298417" lon="11.6980683"><ele>460.0</ele><time>2026-04-12T13:07:47.773Z</time></trkpt><trkpt lat="43.3299067" lon="11.6978417"><ele>459.6666666666667</ele><time>2026-04-12T13:07:48.773Z</time></trkpt><trkpt lat="43.3299833" lon="11.6976133"><ele>459.33333333333337</ele><time>2026-04-12T13:07:49.773Z</time></trkpt><trkpt lat="43.330065" lon="11.6973833"><ele>459.0</ele><time>2026-04-12T13:07:50.773Z</time></trkpt><trkpt lat="43.3301517" lon="11.6971583"><ele>459.0</ele><time>2026-04-12T13:07:51.773Z</time></trkpt><trkpt lat="43.3302233" lon="11.6969333"><ele>459.0</ele><time>2026-04-12T13:07:52.773Z</time></trkpt><trkpt lat="43.330295" lon="11.69671"><ele>459.0</ele><time>2026-04-12T13:07:53.773Z</time></trkpt><trkpt lat="43.3303317" lon="11.6964733"><ele>458.0</ele><time>2026-04-12T13:07:54.773Z</time></trkpt><trkpt lat="43.3303333" lon="11.696245"><ele>457.0</ele><time>2026-04-12T13:07:55.773Z</time></trkpt><trkpt lat="43.3303317" lon="11.6960283"><ele>456.0</ele><time>2026-04-12T13:07:56.773Z</time></trkpt><trkpt lat="43.33035" lon="11.6958017"><ele>456.0</ele><time>2026-04-12T13:07:57.773Z</time></trkpt><trkpt lat="43.3303883" lon="11.6955783"><ele>456.0</ele><time>2026-04-12T13:07:58.773Z</time></trkpt><trkpt lat="43.3304467" lon="11.6953567"><ele>456.0</ele><time>2026-04-12T13:07:59.773Z</time></trkpt><trkpt lat="43.330525" lon="11.69516"><ele>463.0</ele><time>2026-04-12T13:08:00.773Z</time></trkpt><trkpt lat="43.3306117" lon="11.6949617"><ele>470.0</ele><time>2026-04-12T13:08:01.772Z</time></trkpt><trkpt lat="43.3307017" lon="11.6947717"><ele>477.0</ele><time>2026-04-12T13:08:02.773Z</time></trkpt><trkpt lat="43.3308067" lon="11.69459"><ele>475.0</ele><time>2026-04-12T13:08:03.773Z</time></trkpt><trkpt lat="43.33093" lon="11.694415"><ele>473.0</ele><time>2026-04-12T13:08:04.773Z</time></trkpt><trkpt lat="43.3310733" lon="11.6942683"><ele>471.0</ele><time>2026-04-12T13:08:05.773Z</time></trkpt><trkpt lat="43.331225" lon="11.6941267"><ele>471.0</ele><time>2026-04-12T13:08:06.773Z</time></trkpt><trkpt lat="43.3313767" lon="11.6939783"><ele>471.0</ele><time>2026-04-12T13:08:07.773Z</time></trkpt><trkpt lat="43.3315167" lon="11.693845"><ele>471.0</ele><time>2026-04-12T13:08:08.773Z</time></trkpt><trkpt lat="43.33162" lon="11.6936983"><ele>474.66666666666663</ele><time>2026-04-12T13:08:09.773Z</time></trkpt><trkpt lat="43.33173" lon="11.6935233"><ele>478.3333333333333</ele><time>2026-04-12T13:08:10.773Z</time></trkpt><trkpt lat="43.3318183" lon="11.6933067"><ele>482.0</ele><time>2026-04-12T13:08:11.773Z</time></trkpt><trkpt lat="43.3318983" lon="11.6930767"><ele>482.0</ele><time>2026-04-12T13:08:12.773Z</time></trkpt><trkpt lat="43.3319817" lon="11.6928417"><ele>482.0</ele><time>2026-04-12T13:08:13.773Z</time></trkpt><trkpt lat="43.3320517" lon="11.6926167"><ele>482.0</ele><time>2026-04-12T13:08:14.773Z</time></trkpt><trkpt lat="43.3321117" lon="11.69243"><ele>483.40000000000003</ele><time>2026-04-12T13:08:15.773Z</time></trkpt><trkpt lat="43.3321433" lon="11.6922633"><ele>484.80000000000007</ele><time>2026-04-12T13:08:16.773Z</time></trkpt><trkpt lat="43.33213" lon="11.6921233"><ele>486.2</ele><time>2026-04-12T13:08:17.773Z</time></trkpt><trkpt lat="43.33208" lon="11.6920233"><ele>487.6</ele><time>2026-04-12T13:08:18.773Z</time></trkpt><trkpt lat="43.3320017" lon="11.6919567"><ele>489.0</ele><time>2026-04-12T13:08:19.773Z</time></trkpt><trkpt lat="43.331915" lon="11.691935"><ele>489.0</ele><time>2026-04-12T13:08:20.773Z</time></trkpt><trkpt lat="43.3318067" lon="11.6919867"><ele>489.0</ele><time>2026-04-12T13:08:21.773Z</time></trkpt><trkpt lat="43.3316833" lon="11.6920867"><ele>489.0</ele><time>2026-04-12T13:08:22.773Z</time></trkpt><trkpt lat="43.331535" lon="11.6922483"><ele>489.0</ele><time>2026-04-12T13:08:23.773Z</time></trkpt><trkpt lat="43.3313867" lon="11.6924183"><ele>491.0</ele><time>2026-04-12T13:08:24.773Z</time></trkpt><trkpt lat="43.3312617" lon="11.692545"><ele>493.0</ele><time>2026-04-12T13:08:25.773Z</time></trkpt><trkpt lat="43.331165" lon="11.692605"><ele>495.0</ele><time>2026-04-12T13:08:26.773Z</time></trkpt><trkpt lat="43.331085" lon="11.69263"><ele>497.0</ele><time>2026-04-12T13:08:27.773Z</time></trkpt><trkpt lat="43.3310117" lon="11.6926183"><ele>499.0</ele><time>2026-04-12T13:08:28.773Z</time></trkpt><trkpt lat="43.3309567" lon="11.6925233"><ele>499.0</ele><time>2026-04-12T13:08:30.773Z</time></trkpt><trkpt lat="43.3309917" lon="11.69245"><ele>499.0</ele><time>2026-04-12T13:08:31.773Z</time></trkpt><trkpt lat="43.3310833" lon="11.692365"><ele>499.0</ele><time>2026-04-12T13:08:32.773Z</time></trkpt><trkpt lat="43.3312133" lon="11.6922633"><ele>499.0</ele><time>2026-04-12T13:08:33.773Z</time></trkpt><trkpt lat="43.3313133" lon="11.6921833"><ele>499.0</ele><time>2026-04-12T13:08:34.772Z</time></trkpt><trkpt lat="43.3313883" lon="11.692125"><ele>499.4</ele><time>2026-04-12T13:08:35.773Z</time></trkpt><trkpt lat="43.3314483" lon="11.6920533"><ele>499.79999999999995</ele><time>2026-04-12T13:10:22.772Z</time></trkpt><trkpt lat="43.33152" lon="11.6918933"><ele>500.20000000000005</ele><time>2026-04-12T13:10:24.772Z</time></trkpt><trkpt lat="43.331575" lon="11.69178"><ele>500.6</ele><time>2026-04-12T13:10:25.772Z</time></trkpt><trkpt lat="43.3316417" lon="11.6916383"><ele>501.0</ele><time>2026-04-12T13:10:26.772Z</time></trkpt><trkpt lat="43.33171" lon="11.6914667"><ele>501.0</ele><time>2026-04-12T13:10:27.772Z</time></trkpt><trkpt lat="43.3317867" lon="11.6912817"><ele>501.0</ele><time>2026-04-12T13:10:28.772Z</time></trkpt><trkpt lat="43.3318767" lon="11.6910833"><ele>501.0</ele><time>2026-04-12T13:10:29.772Z</time></trkpt><trkpt lat="43.3319483" lon="11.6908717"><ele>504.25</ele><time>2026-04-12T13:10:30.772Z</time></trkpt><trkpt lat="43.3320117" lon="11.6906667"><ele>507.5</ele><time>2026-04-12T13:10:31.772Z</time></trkpt><trkpt lat="43.33205" lon="11.69047"><ele>510.75</ele><time>2026-04-12T13:10:32.772Z</time></trkpt><trkpt lat="43.3320767" lon="11.6902917"><ele>514.0</ele><time>2026-04-12T13:10:33.772Z</time></trkpt><trkpt lat="43.332085" lon="11.6901367"><ele>514.1666666666667</ele><time>2026-04-12T13:10:34.772Z</time></trkpt><trkpt lat="43.3321033" lon="11.690025"><ele>514.3333333333334</ele><time>2026-04-12T13:10:35.772Z</time></trkpt><trkpt lat="43.3321367" lon="11.6899483"><ele>514.5</ele><time>2026-04-12T13:10:36.772Z</time></trkpt><trkpt lat="43.3321883" lon="11.6898967"><ele>514.6666666666666</ele><time>2026-04-12T13:10:37.772Z</time></trkpt><trkpt lat="43.3322733" lon="11.689925"><ele>514.8333333333333</ele><time>2026-04-12T13:10:38.772Z</time></trkpt><trkpt lat="43.3323967" lon="11.6900033"><ele>515.0</ele><time>2026-04-12T13:10:39.772Z</time></trkpt><trkpt lat="43.3325683" lon="11.690105"><ele>515.0</ele><time>2026-04-12T13:10:40.772Z</time></trkpt><trkpt lat="43.3327633" lon="11.6902133"><ele>515.0</ele><time>2026-04-12T13:10:41.772Z</time></trkpt><trkpt lat="43.3329467" lon="11.69029"><ele>515.0</ele><time>2026-04-12T13:10:42.772Z</time></trkpt><trkpt lat="43.3331233" lon="11.69035"><ele>514.5</ele><time>2026-04-12T13:10:43.772Z</time></trkpt><trkpt lat="43.333255" lon="11.6903667"><ele>514.0</ele><time>2026-04-12T13:10:44.772Z</time></trkpt><trkpt lat="43.3333517" lon="11.69033"><ele>513.5</ele><time>2026-04-12T13:10:45.772Z</time></trkpt><trkpt lat="43.3334333" lon="11.69023"><ele>513.0</ele><time>2026-04-12T13:10:46.772Z</time></trkpt><trkpt lat="43.333495" lon="11.6900833"><ele>514.0</ele><time>2026-04-12T13:10:47.772Z</time></trkpt><trkpt lat="43.3335517" lon="11.6899083"><ele>515.0</ele><time>2026-04-12T13:10:48.772Z</time></trkpt><trkpt lat="43.333585" lon="11.6897"><ele>516.0</ele><time>2026-04-12T13:10:49.772Z</time></trkpt><trkpt lat="43.33361" lon="11.6895"><ele>517.0</ele><time>2026-04-12T13:10:50.772Z</time></trkpt><trkpt lat="43.33361" lon="11.6892867"><ele>519.0</ele><time>2026-04-12T13:10:51.772Z</time></trkpt><trkpt lat="43.3336117" lon="11.6891017"><ele>521.0</ele><time>2026-04-12T13:10:52.772Z</time></trkpt><trkpt lat="43.3336317" lon="11.6889283"><ele>523.0</ele><time>2026-04-12T13:10:53.772Z</time></trkpt><trkpt lat="43.3336867" lon="11.6888067"><ele>525.0</ele><time>2026-04-12T13:10:54.772Z</time></trkpt><trkpt lat="43.333755" lon="11.6886817"><ele>525.25</ele><time>2026-04-12T13:10:55.772Z</time></trkpt><trkpt lat="43.3338033" lon="11.6885383"><ele>525.5</ele><time>2026-04-12T13:10:56.772Z</time></trkpt><trkpt lat="43.333825" lon="11.68837"><ele>525.75</ele><time>2026-04-12T13:10:57.771Z</time></trkpt><trkpt lat="43.3337983" lon="11.68817"><ele>526.0</ele><time>2026-04-12T13:10:58.772Z</time></trkpt><trkpt lat="43.3337367" lon="11.687965"><ele>525.0</ele><time>2026-04-12T13:10:59.772Z</time></trkpt><trkpt lat="43.33365" lon="11.687745"><ele>524.0</ele><time>2026-04-12T13:11:00.772Z</time></trkpt><trkpt lat="43.3335617" lon="11.6875067"><ele>523.0</ele><time>2026-04-12T13:11:01.772Z</time></trkpt><trkpt lat="43.333475" lon="11.687265"><ele>523.0</ele><time>2026-04-12T13:11:02.772Z</time></trkpt><trkpt lat="43.33341" lon="11.6870167"><ele>523.0</ele><time>2026-04-12T13:11:03.772Z</time></trkpt><trkpt lat="43.333365" lon="11.6867733"><ele>523.0</ele><time>2026-04-12T13:11:04.772Z</time></trkpt><trkpt lat="43.3333383" lon="11.6865417"><ele>523.0</ele><time>2026-04-12T13:11:05.772Z</time></trkpt><trkpt lat="43.3333317" lon="11.6862983"><ele>523.0</ele><time>2026-04-12T13:11:06.772Z</time></trkpt><trkpt lat="43.3333217" lon="11.6860383"><ele>523.0</ele><time>2026-04-12T13:11:07.772Z</time></trkpt><trkpt lat="43.33334" lon="11.6857867"><ele>523.6666666666667</ele><time>2026-04-12T13:11:08.772Z</time></trkpt><trkpt lat="43.333365" lon="11.6855383"><ele>524.3333333333334</ele><time>2026-04-12T13:11:09.772Z</time></trkpt><trkpt lat="43.333395" lon="11.68528"><ele>525.0</ele><time>2026-04-12T13:11:10.772Z</time></trkpt><trkpt lat="43.3334167" lon="11.6850233"><ele>525.0</ele><time>2026-04-12T13:11:11.772Z</time></trkpt><trkpt lat="43.3334233" lon="11.6847783"><ele>525.0</ele><time>2026-04-12T13:11:12.772Z</time></trkpt><trkpt lat="43.3334217" lon="11.6845217"><ele>525.0</ele><time>2026-04-12T13:11:13.772Z</time></trkpt><trkpt lat="43.3334033" lon="11.6842667"><ele>527.0</ele><time>2026-04-12T13:11:14.772Z</time></trkpt><trkpt lat="43.3333783" lon="11.684015"><ele>529.0</ele><time>2026-04-12T13:11:15.772Z</time></trkpt><trkpt lat="43.33334" lon="11.6837733"><ele>531.0</ele><time>2026-04-12T13:11:16.772Z</time></trkpt><trkpt lat="43.3333233" lon="11.6835317"><ele>531.0</ele><time>2026-04-12T13:11:17.772Z</time></trkpt><trkpt lat="43.3333333" lon="11.6832967"><ele>531.0</ele><time>2026-04-12T13:11:18.772Z</time></trkpt><trkpt lat="43.3333733" lon="11.68307"><ele>531.0</ele><time>2026-04-12T13:11:19.772Z</time></trkpt><trkpt lat="43.33342" lon="11.6828333"><ele>531.3333333333334</ele><time>2026-04-12T13:11:20.772Z</time></trkpt><trkpt lat="43.3334467" lon="11.6825733"><ele>531.6666666666667</ele><time>2026-04-12T13:11:21.771Z</time></trkpt><trkpt lat="43.3334583" lon="11.68229"><ele>532.0</ele><time>2026-04-12T13:11:22.772Z</time></trkpt><trkpt lat="43.3334733" lon="11.6820017"><ele>533.6666666666667</ele><time>2026-04-12T13:11:23.772Z</time></trkpt><trkpt lat="43.33352" lon="11.6817133"><ele>535.3333333333334</ele><time>2026-04-12T13:11:24.772Z</time></trkpt><trkpt lat="43.3335167" lon="11.68142"><ele>537.0</ele><time>2026-04-12T13:11:25.772Z</time></trkpt><trkpt lat="43.333515" lon="11.6811233"><ele>537.0</ele><time>2026-04-12T13:11:26.772Z</time></trkpt><trkpt lat="43.33351" lon="11.680815"><ele>537.0</ele><time>2026-04-12T13:11:27.772Z</time></trkpt><trkpt lat="43.3335117" lon="11.68051"><ele>537.0</ele><time>2026-04-12T13:11:28.772Z</time></trkpt><trkpt lat="43.3335183" lon="11.6801983"><ele>535.5</ele><time>2026-04-12T13:11:29.772Z</time></trkpt><trkpt lat="43.3335267" lon="11.6798817"><ele>534.0</ele><time>2026-04-12T13:11:30.772Z</time></trkpt><trkpt lat="43.3335317" lon="11.6795717"><ele>533.5</ele><time>2026-04-12T13:11:31.772Z</time></trkpt><trkpt lat="43.3335333" lon="11.6792567"><ele>533.0</ele><time>2026-04-12T13:11:32.772Z</time></trkpt><trkpt lat="43.3335367" lon="11.6789433"><ele>533.0</ele><time>2026-04-12T13:11:33.772Z</time></trkpt><trkpt lat="43.33354" lon="11.6786183"><ele>533.0</ele><time>2026-04-12T13:11:34.771Z</time></trkpt><trkpt lat="43.3335417" lon="11.6782917"><ele>531.5</ele><time>2026-04-12T13:11:35.772Z</time></trkpt><trkpt lat="43.3335417" lon="11.6779683"><ele>530.0</ele><time>2026-04-12T13:11:36.772Z</time></trkpt><trkpt lat="43.33354" lon="11.6776517"><ele>527.0</ele><time>2026-04-12T13:11:37.772Z</time></trkpt><trkpt lat="43.333545" lon="11.6773367"><ele>524.0</ele><time>2026-04-12T13:11:38.772Z</time></trkpt><trkpt lat="43.3335583" lon="11.67701"><ele>523.5</ele><time>2026-04-12T13:11:39.772Z</time></trkpt><trkpt lat="43.33357" lon="11.676685"><ele>523.0</ele><time>2026-04-12T13:11:40.772Z</time></trkpt><trkpt lat="43.3335767" lon="11.6763717"><ele>524.3333333333334</ele><time>2026-04-12T13:11:41.772Z</time></trkpt><trkpt lat="43.33358" lon="11.6760667"><ele>525.6666666666666</ele><time>2026-04-12T13:11:42.772Z</time></trkpt><trkpt lat="43.3335833" lon="11.6757633"><ele>527.0</ele><time>2026-04-12T13:11:43.772Z</time></trkpt><trkpt lat="43.3335883" lon="11.6754833"><ele>528.0</ele><time>2026-04-12T13:11:44.772Z</time></trkpt><trkpt lat="43.3335933" lon="11.6752383"><ele>529.0</ele><time>2026-04-12T13:11:45.772Z</time></trkpt><trkpt lat="43.333625" lon="11.6750433"><ele>530.0</ele><time>2026-04-12T13:11:46.772Z</time></trkpt><trkpt lat="43.3336867" lon="11.6748833"><ele>530.0</ele><time>2026-04-12T13:11:47.772Z</time></trkpt><trkpt lat="43.333785" lon="11.6747383"><ele>530.0</ele><time>2026-04-12T13:11:48.772Z</time></trkpt><trkpt lat="43.3339067" lon="11.6745983"><ele>530.0</ele><time>2026-04-12T13:11:49.772Z</time></trkpt><trkpt lat="43.3340483" lon="11.6744533"><ele>532.6666666666666</ele><time>2026-04-12T13:11:50.772Z</time></trkpt><trkpt lat="43.334185" lon="11.6743"><ele>535.3333333333334</ele><time>2026-04-12T13:11:51.772Z</time></trkpt><trkpt lat="43.3343183" lon="11.6741333"><ele>538.0</ele><time>2026-04-12T13:11:52.772Z</time></trkpt><trkpt lat="43.3344483" lon="11.6739583"><ele>538.0</ele><time>2026-04-12T13:11:53.772Z</time></trkpt><trkpt lat="43.334585" lon="11.67378"><ele>538.0</ele><time>2026-04-12T13:11:54.772Z</time></trkpt><trkpt lat="43.3347167" lon="11.67362"><ele>538.0</ele><time>2026-04-12T13:11:55.772Z</time></trkpt><trkpt lat="43.3348283" lon="11.67344"><ele>540.0</ele><time>2026-04-12T13:11:56.772Z</time></trkpt><trkpt lat="43.3349083" lon="11.6732233"><ele>542.0</ele><time>2026-04-12T13:11:57.772Z</time></trkpt><trkpt lat="43.3349467" lon="11.672985"><ele>544.0</ele><time>2026-04-12T13:11:58.772Z</time></trkpt><trkpt lat="43.3349817" lon="11.6727217"><ele>545.0</ele><time>2026-04-12T13:11:59.772Z</time></trkpt><trkpt lat="43.3350217" lon="11.6724467"><ele>546.0</ele><time>2026-04-12T13:12:00.772Z</time></trkpt><trkpt lat="43.3350583" lon="11.672175"><ele>547.0</ele><time>2026-04-12T13:12:01.772Z</time></trkpt><trkpt lat="43.3351017" lon="11.6718983"><ele>548.3333333333334</ele><time>2026-04-12T13:12:02.772Z</time></trkpt><trkpt lat="43.3351433" lon="11.6716133"><ele>549.6666666666666</ele><time>2026-04-12T13:12:03.772Z</time></trkpt><trkpt lat="43.335195" lon="11.6713333"><ele>551.0</ele><time>2026-04-12T13:12:04.772Z</time></trkpt><trkpt lat="43.335255" lon="11.6710733"><ele>551.3333333333333</ele><time>2026-04-12T13:12:05.772Z</time></trkpt><trkpt lat="43.3353333" lon="11.6708417"><ele>551.6666666666666</ele><time>2026-04-12T13:12:06.772Z</time></trkpt><trkpt lat="43.335425" lon="11.6706083"><ele>552.0</ele><time>2026-04-12T13:12:07.772Z</time></trkpt><trkpt lat="43.33555" lon="11.6703817"><ele>551.6666666666666</ele><time>2026-04-12T13:12:08.772Z</time></trkpt><trkpt lat="43.3356767" lon="11.670135"><ele>551.3333333333333</ele><time>2026-04-12T13:12:09.772Z</time></trkpt><trkpt lat="43.3358" lon="11.6698767"><ele>551.0</ele><time>2026-04-12T13:12:10.772Z</time></trkpt><trkpt lat="43.335915" lon="11.6696183"><ele>553.0</ele><time>2026-04-12T13:12:11.772Z</time></trkpt><trkpt lat="43.3360283" lon="11.66936"><ele>555.0</ele><time>2026-04-12T13:12:12.772Z</time></trkpt><trkpt lat="43.3361383" lon="11.6691117"><ele>557.0</ele><time>2026-04-12T13:12:13.772Z</time></trkpt><trkpt lat="43.3362533" lon="11.6688633"><ele>557.0</ele><time>2026-04-12T13:12:14.772Z</time></trkpt><trkpt lat="43.336355" lon="11.6686333"><ele>557.0</ele><time>2026-04-12T13:12:15.772Z</time></trkpt><trkpt lat="43.336455" lon="11.6684083"><ele>557.0</ele><time>2026-04-12T13:12:16.772Z</time></trkpt><trkpt lat="43.3365567" lon="11.6681867"><ele>557.0</ele><time>2026-04-12T13:12:17.772Z</time></trkpt><trkpt lat="43.3366617" lon="11.6679683"><ele>557.0</ele><time>2026-04-12T13:12:18.772Z</time></trkpt><trkpt lat="43.3367617" lon="11.6677517"><ele>557.0</ele><time>2026-04-12T13:12:19.772Z</time></trkpt><trkpt lat="43.3368617" lon="11.6675383"><ele>557.0</ele><time>2026-04-12T13:12:20.772Z</time></trkpt><trkpt lat="43.33695" lon="11.6673433"><ele>557.0</ele><time>2026-04-12T13:12:21.771Z</time></trkpt><trkpt lat="43.337035" lon="11.667155"><ele>557.0</ele><time>2026-04-12T13:12:22.772Z</time></trkpt><trkpt lat="43.3371083" lon="11.6669783"><ele>558.0</ele><time>2026-04-12T13:12:23.772Z</time></trkpt><trkpt lat="43.3371817" lon="11.6668167"><ele>559.0</ele><time>2026-04-12T13:12:24.772Z</time></trkpt><trkpt lat="43.3372517" lon="11.6666617"><ele>560.0</ele><time>2026-04-12T13:12:25.772Z</time></trkpt><trkpt lat="43.3373317" lon="11.6665067"><ele>561.0</ele><time>2026-04-12T13:12:26.772Z</time></trkpt><trkpt lat="43.3374183" lon="11.666335"><ele>561.0</ele><time>2026-04-12T13:12:27.772Z</time></trkpt><trkpt lat="43.3374967" lon="11.66616"><ele>561.0</ele><time>2026-04-12T13:12:28.772Z</time></trkpt><trkpt lat="43.3375517" lon="11.6659783"><ele>561.0</ele><time>2026-04-12T13:12:29.772Z</time></trkpt><trkpt lat="43.3375517" lon="11.6657817"><ele>561.0</ele><time>2026-04-12T13:12:30.772Z</time></trkpt><trkpt lat="43.3375183" lon="11.6656033"><ele>561.25</ele><time>2026-04-12T13:12:31.772Z</time></trkpt><trkpt lat="43.3374767" lon="11.66542"><ele>561.5</ele><time>2026-04-12T13:12:32.771Z</time></trkpt><trkpt lat="43.33744" lon="11.6652383"><ele>561.75</ele><time>2026-04-12T13:12:33.772Z</time></trkpt><trkpt lat="43.33743" lon="11.665075"><ele>562.0</ele><time>2026-04-12T13:12:34.772Z</time></trkpt><trkpt lat="43.3374683" lon="11.6649067"><ele>562.0</ele><time>2026-04-12T13:12:35.772Z</time></trkpt><trkpt lat="43.337545" lon="11.6647783"><ele>562.0</ele><time>2026-04-12T13:12:36.772Z</time></trkpt><trkpt lat="43.3376633" lon="11.66469"><ele>562.0</ele><time>2026-04-12T13:12:37.772Z</time></trkpt><trkpt lat="43.3378183" lon="11.6646633"><ele>562.0</ele><time>2026-04-12T13:12:38.772Z</time></trkpt><trkpt lat="43.3379817" lon="11.6646467"><ele>564.5</ele><time>2026-04-12T13:12:39.772Z</time></trkpt><trkpt lat="43.338145" lon="11.6646467"><ele>567.0</ele><time>2026-04-12T13:12:40.772Z</time></trkpt><trkpt lat="43.3382933" lon="11.6646783"><ele>569.5</ele><time>2026-04-12T13:12:41.772Z</time></trkpt><trkpt lat="43.3383967" lon="11.6647683"><ele>572.0</ele><time>2026-04-12T13:12:42.772Z</time></trkpt><trkpt lat="43.3384783" lon="11.6649017"><ele>572.0</ele><time>2026-04-12T13:12:43.772Z</time></trkpt><trkpt lat="43.3385517" lon="11.6650667"><ele>572.0</ele><time>2026-04-12T13:12:44.772Z</time></trkpt><trkpt lat="43.338635" lon="11.66524"><ele>572.0</ele><time>2026-04-12T13:12:45.772Z</time></trkpt><trkpt lat="43.3387267" lon="11.66543"><ele>572.6666666666666</ele><time>2026-04-12T13:12:46.772Z</time></trkpt><trkpt lat="43.338815" lon="11.6656317"><ele>573.3333333333334</ele><time>2026-04-12T13:12:47.772Z</time></trkpt><trkpt lat="43.3389167" lon="11.6658167"><ele>574.0</ele><time>2026-04-12T13:12:48.772Z</time></trkpt><trkpt lat="43.3390233" lon="11.665975"><ele>574.0</ele><time>2026-04-12T13:12:49.772Z</time></trkpt><trkpt lat="43.3391483" lon="11.666095"><ele>574.0</ele><time>2026-04-12T13:12:50.772Z</time></trkpt><trkpt lat="43.3392733" lon="11.6661367"><ele>574.0</ele><time>2026-04-12T13:12:51.771Z</time></trkpt><trkpt lat="43.3393817" lon="11.6660917"><ele>574.0</ele><time>2026-04-12T13:12:52.772Z</time></trkpt><trkpt lat="43.3394967" lon="11.6659967"><ele>574.0</ele><time>2026-04-12T13:12:53.772Z</time></trkpt><trkpt lat="43.339615" lon="11.6658767"><ele>574.0</ele><time>2026-04-12T13:12:54.772Z</time></trkpt><trkpt lat="43.339735" lon="11.6657517"><ele>574.0</ele><time>2026-04-12T13:12:55.772Z</time></trkpt><trkpt lat="43.3398417" lon="11.66562"><ele>574.0</ele><time>2026-04-12T13:12:56.772Z</time></trkpt><trkpt lat="43.33993" lon="11.665485"><ele>575.25</ele><time>2026-04-12T13:12:57.772Z</time></trkpt><trkpt lat="43.3399967" lon="11.6653283"><ele>576.5</ele><time>2026-04-12T13:12:58.772Z</time></trkpt><trkpt lat="43.340035" lon="11.6651283"><ele>577.75</ele><time>2026-04-12T13:12:59.772Z</time></trkpt><trkpt lat="43.3400633" lon="11.664915"><ele>579.0</ele><time>2026-04-12T13:13:00.772Z</time></trkpt><trkpt lat="43.340105" lon="11.6647017"><ele>579.0</ele><time>2026-04-12T13:13:01.772Z</time></trkpt><trkpt lat="43.3401483" lon="11.6644967"><ele>579.0</ele><time>2026-04-12T13:13:02.772Z</time></trkpt><trkpt lat="43.3401933" lon="11.664315"><ele>579.0</ele><time>2026-04-12T13:13:03.772Z</time></trkpt><trkpt lat="43.3402483" lon="11.6641683"><ele>579.0</ele><time>2026-04-12T13:13:04.772Z</time></trkpt><trkpt lat="43.34033" lon="11.6640633"><ele>577.6666666666666</ele><time>2026-04-12T13:13:05.772Z</time></trkpt><trkpt lat="43.34046" lon="11.6640333"><ele>576.3333333333333</ele><time>2026-04-12T13:13:06.772Z</time></trkpt><trkpt lat="43.340615" lon="11.6640483"><ele>575.0</ele><time>2026-04-12T13:13:07.772Z</time></trkpt><trkpt lat="43.34078" lon="11.664065"><ele>578.0</ele><time>2026-04-12T13:13:08.772Z</time></trkpt><trkpt lat="43.34094" lon="11.6640733"><ele>581.0</ele><time>2026-04-12T13:13:09.772Z</time></trkpt><trkpt lat="43.3411117" lon="11.66407"><ele>584.0</ele><time>2026-04-12T13:13:10.772Z</time></trkpt><trkpt lat="43.3412933" lon="11.6640783"><ele>583.0</ele><time>2026-04-12T13:13:11.772Z</time></trkpt><trkpt lat="43.3414833" lon="11.6640883"><ele>582.0</ele><time>2026-04-12T13:13:12.772Z</time></trkpt><trkpt lat="43.3416633" lon="11.6640883"><ele>581.0</ele><time>2026-04-12T13:13:13.772Z</time></trkpt><trkpt lat="43.34184" lon="11.6640483"><ele>581.0</ele><time>2026-04-12T13:13:14.772Z</time></trkpt><trkpt lat="43.34202" lon="11.6639867"><ele>581.0</ele><time>2026-04-12T13:13:15.772Z</time></trkpt><trkpt lat="43.3421917" lon="11.6638733"><ele>581.0</ele><time>2026-04-12T13:13:16.772Z</time></trkpt><trkpt lat="43.3423417" lon="11.663715"><ele>582.6666666666666</ele><time>2026-04-12T13:13:17.772Z</time></trkpt><trkpt lat="43.342485" lon="11.6635417"><ele>584.3333333333334</ele><time>2026-04-12T13:13:18.772Z</time></trkpt><trkpt lat="43.3426333" lon="11.6633917"><ele>586.0</ele><time>2026-04-12T13:13:19.772Z</time></trkpt><trkpt lat="43.3427767" lon="11.6632983"><ele>586.0</ele><time>2026-04-12T13:13:20.772Z</time></trkpt><trkpt lat="43.3429267" lon="11.6632733"><ele>586.0</ele><time>2026-04-12T13:13:21.772Z</time></trkpt><trkpt lat="43.3430733" lon="11.663315"><ele>586.0</ele><time>2026-04-12T13:13:22.772Z</time></trkpt><trkpt lat="43.3432233" lon="11.66338"><ele>587.0</ele><time>2026-04-12T13:13:23.772Z</time></trkpt><trkpt lat="43.343365" lon="11.663445"><ele>588.0</ele><time>2026-04-12T13:13:24.772Z</time></trkpt><trkpt lat="43.3435017" lon="11.663485"><ele>589.0</ele><time>2026-04-12T13:13:25.772Z</time></trkpt><trkpt lat="43.3436033" lon="11.6634683"><ele>590.0</ele><time>2026-04-12T13:13:26.772Z</time></trkpt><trkpt lat="43.3437" lon="11.6634083"><ele>590.0</ele><time>2026-04-12T13:13:27.772Z</time></trkpt><trkpt lat="43.3437683" lon="11.6633067"><ele>590.0</ele><time>2026-04-12T13:13:28.771Z</time></trkpt><trkpt lat="43.3438217" lon="11.6632"><ele>590.0</ele><time>2026-04-12T13:13:29.772Z</time></trkpt><trkpt lat="43.3438733" lon="11.6630883"><ele>590.0</ele><time>2026-04-12T13:13:30.772Z</time></trkpt><trkpt lat="43.3439367" lon="11.6629717"><ele>590.0</ele><time>2026-04-12T13:13:31.772Z</time></trkpt><trkpt lat="43.3439783" lon="11.6628767"><ele>586.0</ele><time>2026-04-12T13:13:32.772Z</time></trkpt><trkpt lat="43.3440267" lon="11.6627783"><ele>588.0</ele><time>2026-04-12T13:13:33.772Z</time></trkpt><trkpt lat="43.344065" lon="11.6626867"><ele>588.0</ele><time>2026-04-12T13:13:34.772Z</time></trkpt><trkpt lat="43.34412" lon="11.6626017"><ele>588.0</ele><time>2026-04-12T13:13:35.772Z</time></trkpt><trkpt lat="43.3441617" lon="11.662535"><ele>588.0</ele><time>2026-04-12T13:13:36.772Z</time></trkpt><trkpt lat="43.34421" lon="11.662435"><ele>588.0</ele><time>2026-04-12T13:13:38.772Z</time></trkpt><trkpt lat="43.34421" lon="11.662435"><ele>588.0</ele><time>2026-04-12T13:13:38.772Z</time></trkpt></trkseg></trk></gpx>